Time;durP1;ratioP1;P1;durP2;ratioP2;P2;SDS_P1;SDS_P2;PMS_P1;PMS_P2;Temp;Humidity;BMP_temperature;BMP_pressure;BME280_temperature;BME280_humidity;BME280_pressure;Samples;Min_cycle;Max_cycle;Signal;HPM_P1;HPM_P2
2021/11/27 00:01:30;;;;;;;1.97;1.87;;;;;;;0.23;73.77;100284.63;6143090;29;20280;-73
2021/11/27 00:04:36;;;;;;;1.93;1.83;;;;;;;0.11;74.36;100285.91;6141736;29;20195;-74
2021/11/27 00:07:41;;;;;;;1.70;1.70;;;;;;;0.22;74.33;100291.81;6142876;29;20251;-73
2021/11/27 00:10:51;;;;;;;1.40;1.40;;;;;;;0.31;73.73;100282.75;6141758;29;20386;-74
2021/11/27 00:13:56;;;;;;;1.53;1.53;;;;;;;0.42;73.43;100284.31;6142026;29;20249;-73
2021/11/27 00:17:00;;;;;;;1.53;1.53;;;;;;;0.13;74.19;100284.72;6141544;29;20424;-73
2021/11/27 00:20:10;;;;;;;1.40;1.40;;;;;;;0.12;74.86;100282.22;6141767;29;20189;-72
2021/11/27 00:23:16;;;;;;;2.47;1.60;;;;;;;0.18;74.37;100281.59;6141559;29;20214;-73
2021/11/27 00:26:23;;;;;;;1.90;1.50;;;;;;;0.27;74.22;100288.63;6141367;29;20507;-74
2021/11/27 00:29:27;;;;;;;1.40;1.40;;;;;;;0.13;74.53;100286.59;6141410;29;20191;-73
2021/11/27 00:32:33;;;;;;;1.67;1.57;;;;;;;0.00;75.37;100290.56;6140571;29;20212;-73
2021/11/27 00:35:38;;;;;;;2.33;1.57;;;;;;;0.28;74.54;100295.69;6140031;29;20205;-74
2021/11/27 00:38:43;;;;;;;1.77;1.67;;;;;;;0.22;74.67;100288.28;6142031;29;20195;-74
2021/11/27 00:41:48;;;;;;;1.50;1.50;;;;;;;0.32;74.91;100305.09;6141110;29;20412;-74
2021/11/27 00:44:52;;;;;;;1.40;1.40;;;;;;;0.30;74.20;100291.00;6142091;29;20195;-74
2021/11/27 00:47:58;;;;;;;1.57;1.53;;;;;;;0.35;74.05;100299.38;6140006;29;20224;-74
2021/11/27 00:51:07;;;;;;;1.70;1.60;;;;;;;0.28;74.74;100304.59;6140002;29;20207;-74
2021/11/27 00:54:12;;;;;;;1.60;1.50;;;;;;;0.33;73.86;100301.41;6124877;29;20213;-74
2021/11/27 00:57:16;;;;;;;1.63;1.50;;;;;;;0.26;74.11;100300.34;6140672;29;20394;-74
2021/11/27 01:00:26;;;;;;;1.60;1.50;;;;;;;0.21;74.57;100291.97;6142115;29;20190;-73
2021/11/27 01:03:33;;;;;;;1.63;1.60;;;;;;;0.39;73.88;100295.38;6141985;29;20190;-73
2021/11/27 01:06:39;;;;;;;1.40;1.40;;;;;;;0.34;74.85;100287.81;6102129;29;20231;-74
2021/11/27 01:09:43;;;;;;;1.40;1.40;;;;;;;0.34;74.30;100293.19;6108320;29;20435;-73
2021/11/27 01:12:49;;;;;;;1.70;1.50;;;;;;;0.22;75.10;100288.28;6094850;29;20193;-73
2021/11/27 01:15:54;;;;;;;1.47;1.47;;;;;;;0.06;75.42;100298.97;6094491;29;20255;-73
2021/11/27 01:18:58;;;;;;;1.47;1.47;;;;;;;0.03;75.72;100299.31;6092071;29;20211;-73
2021/11/27 01:22:07;;;;;;;1.40;1.40;;;;;;;0.08;75.92;100296.97;6093461;29;20191;-73
2021/11/27 01:25:12;;;;;;;1.60;1.50;;;;;;;0.07;75.92;100306.03;6108413;29;20484;-74
2021/11/27 01:28:19;;;;;;;5.37;1.53;;;;;;;-0.09;76.47;100304.97;6094527;29;20214;-73
2021/11/27 01:31:23;;;;;;;1.60;1.60;;;;;;;0.08;75.73;100297.78;6108039;29;20430;-74
2021/11/27 01:34:28;;;;;;;1.47;1.47;;;;;;;-0.07;76.69;100304.78;6108012;29;20503;-73
2021/11/27 01:37:34;;;;;;;1.40;1.40;;;;;;;0.14;75.47;100296.31;6108944;29;20213;-73
2021/11/27 01:40:39;;;;;;;1.63;1.60;;;;;;;0.23;75.43;100300.72;6108315;29;20207;-72
2021/11/27 01:43:45;;;;;;;2.07;1.37;;;;;;;0.40;74.77;100297.91;6094433;29;20208;-72
2021/11/27 01:46:52;;;;;;;1.20;1.20;;;;;;;0.36;75.00;100295.72;6112751;29;20422;-72
2021/11/27 01:49:56;;;;;;;1.80;1.70;;;;;;;0.39;74.59;100295.38;6112528;29;20259;-73
2021/11/27 01:53:04;;;;;;;1.50;1.50;;;;;;;0.43;74.33;100291.38;6112774;29;20206;-73
2021/11/27 01:56:12;;;;;;;1.80;1.80;;;;;;;0.39;74.33;100303.41;6096644;29;20434;-73
2021/11/27 01:59:16;;;;;;;4.43;1.60;;;;;;;0.38;74.91;100304.44;6096736;29;20380;-73
2021/11/27 02:02:21;;;;;;;1.30;1.30;;;;;;;0.33;75.08;100296.88;6113377;29;20256;-73
2021/11/27 02:05:26;;;;;;;1.50;1.50;;;;;;;0.28;75.22;100306.44;6122022;29;20242;-73
2021/11/27 02:08:32;;;;;;;1.37;1.37;;;;;;;0.42;74.40;100305.78;6143944;29;20302;-73
2021/11/27 02:11:39;;;;;;;1.53;1.43;;;;;;;0.47;74.13;100298.06;6129064;29;20207;-73
2021/11/27 02:14:46;;;;;;;1.40;1.40;;;;;;;0.49;73.92;100285.31;6144007;29;20213;-73
2021/11/27 02:17:58;;;;;;;2.80;1.37;;;;;;;0.44;74.34;100287.66;6143723;29;20209;-74
2021/11/27 02:21:07;;;;;;;1.53;1.43;;;;;;;0.47;74.26;100287.31;6127993;29;20214;-74
2021/11/27 02:24:16;;;;;;;1.10;1.10;;;;;;;0.57;73.84;100288.00;6143222;29;20431;-73
2021/11/27 02:27:20;;;;;;;1.30;1.30;;;;;;;0.58;73.73;100289.69;6145190;29;20239;-73
2021/11/27 02:30:25;;;;;;;1.27;1.13;;;;;;;0.57;73.82;100282.63;6142851;29;20254;-73
2021/11/27 02:33:29;;;;;;;1.53;1.43;;;;;;;0.69;73.07;100286.69;6142815;29;20248;-73
2021/11/27 02:36:37;;;;;;;1.03;1.03;;;;;;;0.72;73.56;100283.66;6142682;29;20352;-73
2021/11/27 02:39:42;;;;;;;1.47;1.47;;;;;;;0.62;73.73;100280.28;6127988;29;20216;-73
2021/11/27 02:42:46;;;;;;;1.20;1.20;;;;;;;0.52;74.16;100284.97;6142771;29;20247;-73
2021/11/27 02:45:50;;;;;;;1.30;1.30;;;;;;;0.51;74.18;100283.31;6142556;29;20237;-73
2021/11/27 02:48:55;;;;;;;1.20;1.20;;;;;;;0.52;74.42;100284.97;6143432;29;20467;-73
2021/11/27 02:52:01;;;;;;;1.23;1.23;;;;;;;0.36;74.96;100287.66;6126770;29;20520;-73
2021/11/27 02:55:06;;;;;;;1.63;1.63;;;;;;;0.46;74.77;100286.47;6141426;29;20205;-74
2021/11/27 02:58:13;;;;;;;1.90;1.40;;;;;;;0.40;75.35;100292.53;6142300;29;20213;-74
2021/11/27 03:01:21;;;;;;;1.40;1.40;;;;;;;0.48;74.86;100275.59;6142100;29;20213;-74
2021/11/27 03:04:29;;;;;;;1.10;1.10;;;;;;;0.47;75.10;100277.44;6126879;29;20321;-74
2021/11/27 03:07:35;;;;;;;1.20;1.10;;;;;;;0.60;74.16;100271.56;6144183;29;20248;-74
2021/11/27 03:10:39;;;;;;;1.30;1.30;;;;;;;0.68;73.90;100271.59;6143333;29;20214;-73
2021/11/27 03:13:44;;;;;;;1.40;1.40;;;;;;;0.57;74.49;100285.31;6143980;29;20190;-74
2021/11/27 03:16:52;;;;;;;1.33;1.23;;;;;;;0.59;74.25;100280.66;6125881;29;20214;-73
2021/11/27 03:20:05;;;;;;;1.10;1.10;;;;;;;0.58;74.18;100273.59;6141653;29;20210;-74
2021/11/27 03:23:15;;;;;;;1.30;1.30;;;;;;;0.54;74.41;100264.19;6142086;29;20333;-74
2021/11/27 03:26:19;;;;;;;1.33;1.33;;;;;;;0.63;74.37;100276.63;6141982;29;20354;-74
2021/11/27 03:29:24;;;;;;;1.23;1.23;;;;;;;0.61;74.32;100278.63;6141079;29;20231;-74
2021/11/27 03:32:31;;;;;;;1.30;1.30;;;;;;;0.54;74.61;100280.28;6141800;29;20517;-74
2021/11/27 03:35:44;;;;;;;1.47;1.40;;;;;;;0.56;74.88;100280.97;6126386;29;20262;-74
2021/11/27 03:38:50;;;;;;;1.43;1.43;;;;;;;0.54;74.96;100282.97;6140841;29;20297;-74
2021/11/27 03:41:55;;;;;;;1.30;1.30;;;;;;;0.62;74.93;100280.28;6141506;29;20236;-74
2021/11/27 03:44:59;;;;;;;1.10;1.10;;;;;;;0.65;74.89;100290.72;6141109;29;20206;-73
2021/11/27 03:48:08;;;;;;;1.20;1.20;;;;;;;0.75;74.21;100285.16;6141165;29;20331;-73
2021/11/27 03:51:31;;;;;;;1.10;1.10;;;;;;;0.73;74.43;100288.03;6140895;29;20206;-73
2021/11/27 03:54:37;;;;;;;1.30;1.30;;;;;;;0.76;74.45;100303.81;6125377;29;20207;-73
2021/11/27 03:57:42;;;;;;;2.20;1.20;;;;;;;0.96;73.69;100293.56;6126451;29;20274;-73
2021/11/27 04:00:47;;;;;;;1.70;1.30;;;;;;;0.98;73.81;100300.44;6125779;29;20208;-74
2021/11/27 04:03:56;;;;;;;1.10;1.10;;;;;;;1.01;73.82;100302.81;6140616;29;20230;-73
2021/11/27 04:07:04;;;;;;;1.53;1.00;;;;;;;0.91;74.44;100302.13;6125112;29;20447;-73
2021/11/27 04:10:14;;;;;;;1.07;1.07;;;;;;;0.82;74.72;100303.16;6140595;29;20257;-73
2021/11/27 04:13:21;;;;;;;1.20;1.20;;;;;;;0.80;74.53;100317.72;6125717;29;20207;-73
2021/11/27 04:16:26;;;;;;;1.80;1.20;;;;;;;0.83;74.52;100302.13;6140404;29;20208;-74
2021/11/27 04:19:30;;;;;;;1.20;1.10;;;;;;;0.82;74.41;100307.69;6125124;29;20227;-73
2021/11/27 04:22:35;;;;;;;1.07;1.07;;;;;;;0.83;74.79;100310.19;6140248;29;20395;-73
2021/11/27 04:25:43;;;;;;;1.00;1.00;;;;;;;0.94;73.66;100307.19;6124665;29;20529;-73
2021/11/27 04:28:50;;;;;;;1.20;1.20;;;;;;;0.92;74.25;100319.94;6140281;29;20205;-73
2021/11/27 04:31:55;;;;;;;1.07;1.07;;;;;;;0.91;74.14;100312.88;6124760;29;20207;-74
2021/11/27 04:35:00;;;;;;;0.93;0.93;;;;;;;0.98;74.22;100323.78;6140633;29;20244;-73
2021/11/27 04:38:08;;;;;;;1.70;0.87;;;;;;;0.86;74.07;100328.66;6141681;29;20195;-73
2021/11/27 04:41:14;;;;;;;1.10;1.10;;;;;;;0.85;73.99;100323.47;6142461;29;20195;-73
2021/11/27 04:44:18;;;;;;;0.90;0.90;;;;;;;0.86;74.08;100320.59;6123944;29;20269;-73
2021/11/27 04:47:23;;;;;;;0.90;0.90;;;;;;;0.92;73.34;100319.94;6140428;29;20214;-73
2021/11/27 04:50:29;;;;;;;1.50;1.13;;;;;;;0.90;73.56;100321.94;6139732;29;20257;-73
2021/11/27 04:53:35;;;;;;;1.10;1.10;;;;;;;0.92;73.14;100324.47;6141044;29;20214;-73
2021/11/27 04:56:40;;;;;;;1.10;1.10;;;;;;;0.81;73.81;100328.31;6140393;29;20207;-73
2021/11/27 04:59:46;;;;;;;1.20;1.20;;;;;;;0.91;73.71;100328.16;6140594;29;20211;-73
2021/11/27 05:02:52;;;;;;;1.13;1.07;;;;;;;0.74;74.09;100324.63;6124927;29;20206;-73
2021/11/27 05:05:57;;;;;;;1.10;1.10;;;;;;;0.80;74.04;100326.63;6122866;29;20335;-74
2021/11/27 05:09:01;;;;;;;1.10;1.10;;;;;;;0.86;73.94;100320.59;6093665;29;20271;-73
2021/11/27 05:12:07;;;;;;;2.37;1.13;;;;;;;0.91;73.69;100318.25;6108460;29;20236;-73
2021/11/27 05:15:13;;;;;;;2.33;1.17;;;;;;;0.90;74.03;100324.63;6108495;29;20215;-73
2021/11/27 05:18:21;;;;;;;0.90;0.90;;;;;;;1.18;73.18;100325.94;6109932;29;20491;-73
2021/11/27 05:21:34;;;;;;;1.20;1.10;;;;;;;1.04;73.01;100331.16;6099761;29;20201;-73
2021/11/27 05:24:43;;;;;;;1.10;1.10;;;;;;;0.93;74.04;100332.34;6112964;29;20208;-73
2021/11/27 05:28:00;;;;;;;1.13;1.03;;;;;;;1.00;73.69;100330.66;6112990;29;20276;-74
2021/11/27 05:31:22;;;;;;;2.03;1.10;;;;;;;0.93;73.89;100332.34;6113739;29;20292;-74
2021/11/27 05:34:34;;;;;;;1.20;1.20;;;;;;;1.09;72.93;100326.97;6113451;29;20248;-73
2021/11/27 05:37:38;;;;;;;1.20;1.20;;;;;;;1.05;73.28;100344.44;6099045;29;20196;-74
2021/11/27 05:40:44;;;;;;;1.07;1.07;;;;;;;1.15;72.74;100339.75;6098088;29;20380;-74
2021/11/27 05:43:51;;;;;;;1.10;1.10;;;;;;;1.00;73.49;100343.28;6112847;29;20230;-74
2021/11/27 05:46:55;;;;;;;0.80;0.80;;;;;;;0.97;73.68;100341.75;6112688;29;20524;-74
2021/11/27 05:49:59;;;;;;;1.03;1.03;;;;;;;1.06;73.61;100343.44;6112239;29;20304;-74
2021/11/27 05:53:13;;;;;;;1.13;1.13;;;;;;;1.32;72.60;100342.41;6098087;29;20209;-74
2021/11/27 05:56:18;;;;;;;1.03;1.03;;;;;;;1.30;72.67;100344.44;6098012;29;20448;-74
2021/11/27 05:59:23;;;;;;;1.20;1.20;;;;;;;1.42;72.15;100353.81;6099354;29;20200;-74
2021/11/27 06:02:28;;;;;;;1.20;1.20;;;;;;;1.26;72.98;100354.66;6097643;29;20263;-74
2021/11/27 06:05:32;;;;;;;0.90;0.90;;;;;;;1.39;72.62;100354.19;6108713;29;20330;-73
2021/11/27 06:08:37;;;;;;;1.03;1.00;;;;;;;1.10;73.68;100366.28;6144449;29;20375;-74
2021/11/27 06:11:42;;;;;;;1.00;1.00;;;;;;;1.16;73.73;100365.59;6145335;29;20251;-73
2021/11/27 06:14:48;;;;;;;1.10;1.10;;;;;;;0.99;74.33;100371.97;6144197;29;20600;-74
2021/11/27 06:17:53;;;;;;;1.00;1.00;;;;;;;1.13;74.03;100365.09;6145448;29;20229;-74
2021/11/27 06:20:58;;;;;;;1.17;1.17;;;;;;;0.91;74.47;100366.59;6145160;29;20203;-75
2021/11/27 06:24:03;;;;;;;1.10;1.10;;;;;;;0.72;75.42;100371.44;6145394;29;20271;-74
2021/11/27 06:27:08;;;;;;;1.10;1.10;;;;;;;0.77;75.67;100372.59;6145476;29;20270;-73
2021/11/27 06:30:14;;;;;;;1.20;1.20;;;;;;;0.73;76.18;100373.94;6142592;29;20478;-73
2021/11/27 06:33:18;;;;;;;1.20;1.20;;;;;;;0.87;75.67;100373.31;6144836;29;20272;-73
2021/11/27 06:36:25;;;;;;;1.03;1.03;;;;;;;0.93;74.81;100369.94;6145149;29;20198;-74
2021/11/27 06:39:31;;;;;;;1.20;1.20;;;;;;;1.03;75.10;100370.63;6143818;29;20505;-73
2021/11/27 06:42:35;;;;;;;2.57;1.20;;;;;;;1.18;74.74;100378.88;6143733;29;20201;-73
2021/11/27 06:45:53;;;;;;;1.00;1.00;;;;;;;0.98;75.26;100378.34;6127323;29;20206;-73
2021/11/27 06:49:00;;;;;;;1.10;1.10;;;;;;;1.18;74.71;100368.94;6126764;29;20208;-73
2021/11/27 06:52:05;;;;;;;1.20;1.20;;;;;;;1.27;73.97;100373.31;6144868;29;20219;-73
2021/11/27 06:55:10;;;;;;;1.30;1.20;;;;;;;1.10;74.50;100382.41;6142733;29;20211;-74
2021/11/27 06:58:15;;;;;;;1.00;1.00;;;;;;;1.11;74.40;100381.38;6126999;29;20371;-73
2021/11/27 07:01:38;;;;;;;1.87;1.10;;;;;;;1.09;74.98;100378.03;6143135;29;20212;-73
2021/11/27 07:04:45;;;;;;;1.20;1.20;;;;;;;1.19;74.52;100384.06;6143132;29;20412;-73
2021/11/27 07:08:14;;;;;;;1.30;1.20;;;;;;;1.21;74.83;100371.31;6136415;29;20551;-73
2021/11/27 07:11:42;;;;;;;1.03;1.03;;;;;;;1.35;74.27;100380.53;6140959;29;20577;-73
2021/11/27 07:14:48;;;;;;;2.00;1.50;;;;;;;1.20;74.84;100388.44;6141538;29;20483;-74
2021/11/27 07:17:53;;;;;;;1.20;1.10;;;;;;;1.21;74.76;100379.38;6143708;29;20188;-73
2021/11/27 07:20:58;;;;;;;1.00;1.00;;;;;;;1.18;74.96;100395.81;6143229;29;20258;-75
2021/11/27 07:24:03;;;;;;;1.27;1.27;;;;;;;1.33;75.12;100381.72;6143763;29;20202;-74
2021/11/27 07:27:08;;;;;;;1.30;1.30;;;;;;;1.23;74.98;100376.53;6143504;29;20206;-73
2021/11/27 07:30:13;;;;;;;1.20;1.20;;;;;;;1.22;75.12;100394.50;6142319;29;20192;-73
2021/11/27 07:33:24;;;;;;;1.10;1.10;;;;;;;1.05;76.53;100390.09;6141692;29;20263;-73
2021/11/27 07:36:29;;;;;;;1.20;1.20;;;;;;;1.19;76.48;100386.75;6141227;29;20245;-73
2021/11/27 07:39:39;;;;;;;1.43;1.43;;;;;;;1.25;76.20;100396.84;6143337;29;20209;-74
2021/11/27 07:42:43;;;;;;;1.53;1.43;;;;;;;1.41;75.35;100389.78;6141895;29;20217;-74
2021/11/27 07:46:07;;;;;;;1.30;1.30;;;;;;;1.23;75.90;100393.47;6142195;29;20192;-73
2021/11/27 07:49:31;;;;;;;2.17;1.17;;;;;;;1.16;76.80;100403.22;6143639;29;20225;-73
2021/11/27 07:52:54;;;;;;;1.27;1.27;;;;;;;1.10;77.36;100401.22;6143421;29;20219;-73
2021/11/27 07:55:59;;;;;;;1.40;1.40;;;;;;;1.36;76.13;100402.88;6143330;29;20188;-73
2021/11/27 07:59:03;;;;;;;1.30;1.30;;;;;;;1.39;76.40;100402.56;6141749;29;20375;-73
2021/11/27 08:02:08;;;;;;;1.10;1.10;;;;;;;1.42;76.18;100407.56;6142868;29;20199;-73
2021/11/27 08:05:15;;;;;;;1.30;1.30;;;;;;;1.51;76.11;100403.88;6141672;29;20248;-73
2021/11/27 08:08:19;;;;;;;1.43;1.37;;;;;;;1.56;76.45;100398.84;6141472;29;20190;-74
2021/11/27 08:11:25;;;;;;;1.40;1.40;;;;;;;1.43;76.58;100403.88;6141570;29;20413;-72
2021/11/27 08:14:31;;;;;;;1.47;1.47;;;;;;;1.37;76.96;100399.19;6142529;29;20260;-73
2021/11/27 08:17:36;;;;;;;1.63;1.60;;;;;;;1.32;77.25;100407.75;6141350;29;20495;-73
2021/11/27 08:20:41;;;;;;;1.47;1.47;;;;;;;1.44;77.21;100401.03;6141199;29;20451;-76
2021/11/27 08:23:47;;;;;;;1.90;1.80;;;;;;;1.38;77.67;100403.56;6141852;29;20196;-73
2021/11/27 08:26:51;;;;;;;1.30;1.30;;;;;;;1.54;77.28;100395.50;6141377;29;20297;-74
2021/11/27 08:29:55;;;;;;;1.30;1.30;;;;;;;1.40;77.61;100410.44;6141002;29;20386;-73
2021/11/27 08:32:59;;;;;;;1.60;1.60;;;;;;;1.54;77.16;100400.88;6140867;29;20291;-73
2021/11/27 08:36:05;;;;;;;1.50;1.40;;;;;;;1.48;77.86;100401.53;6140826;29;20485;-73
2021/11/27 08:39:10;;;;;;;1.67;1.57;;;;;;;1.51;78.07;100401.19;6140856;29;20384;-73
2021/11/27 08:42:16;;;;;;;1.33;1.33;;;;;;;1.62;77.78;100404.38;6142289;29;20234;-74
2021/11/27 08:45:20;;;;;;;1.77;1.67;;;;;;;1.62;77.82;100408.91;6141815;29;20267;-73
2021/11/27 08:48:24;;;;;;;1.43;1.43;;;;;;;1.55;77.41;100407.91;6142408;29;20191;-73
2021/11/27 08:51:31;;;;;;;1.50;1.50;;;;;;;1.61;76.98;100404.56;6140825;29;20198;-73
2021/11/27 08:54:35;;;;;;;1.30;1.27;;;;;;;1.56;77.82;100404.22;6139715;29;20384;-73
2021/11/27 08:57:39;;;;;;;1.37;1.33;;;;;;;1.65;77.08;100408.56;6141154;29;20188;-73
2021/11/27 09:00:44;;;;;;;1.70;1.70;;;;;;;1.64;76.97;100420.34;6141674;29;20196;-77
2021/11/27 09:03:49;;;;;;;1.27;1.27;;;;;;;1.77;76.35;100417.97;6140005;29;20467;-74
2021/11/27 09:06:55;;;;;;;1.30;1.30;;;;;;;1.64;77.12;100418.50;6140755;29;20265;-74
2021/11/27 09:09:59;;;;;;;2.97;1.70;;;;;;;1.64;76.87;100428.41;6140435;29;20480;-74
2021/11/27 09:13:04;;;;;;;1.40;1.40;;;;;;;1.65;76.45;100424.69;6140514;29;20239;-74
2021/11/27 09:16:11;;;;;;;1.93;1.40;;;;;;;1.68;76.66;100432.44;6140493;29;20472;-74
2021/11/27 09:19:36;;;;;;;1.53;1.53;;;;;;;1.75;76.23;100430.75;6141422;29;20267;-74
2021/11/27 09:22:41;;;;;;;1.83;1.83;;;;;;;1.61;76.10;100434.13;6140310;29;20201;-74
2021/11/27 09:25:46;;;;;;;1.40;1.40;;;;;;;1.54;76.65;100433.13;6140737;29;20212;-74
2021/11/27 09:28:50;;;;;;;1.60;1.50;;;;;;;1.54;76.49;100433.94;6140723;29;20270;-73
2021/11/27 09:31:54;;;;;;;1.70;1.67;;;;;;;1.48;76.87;100417.66;6140867;29;20263;-73
2021/11/27 09:34:59;;;;;;;1.93;1.63;;;;;;;1.54;76.92;100422.38;6140117;29;20383;-73
2021/11/27 09:38:05;;;;;;;2.00;1.90;;;;;;;1.48;76.46;100434.63;6141331;29;20238;-73
2021/11/27 09:41:17;;;;;;;1.70;1.70;;;;;;;1.44;77.25;100427.09;6140738;29;20268;-73
2021/11/27 09:44:21;;;;;;;1.70;1.70;;;;;;;1.44;76.86;100424.41;6140002;29;20199;-74
2021/11/27 09:47:27;;;;;;;1.87;1.77;;;;;;;1.48;76.95;100423.03;6141008;29;20263;-73
2021/11/27 09:50:32;;;;;;;2.23;1.60;;;;;;;1.53;77.16;100440.34;6139963;29;20229;-73
2021/11/27 09:53:41;;;;;;;2.17;2.13;;;;;;;1.39;77.36;100434.81;6141168;29;20294;-74
2021/11/27 09:56:46;;;;;;;2.00;1.90;;;;;;;1.56;77.04;100431.09;6139814;29;20539;-73
2021/11/27 09:59:50;;;;;;;1.70;1.70;;;;;;;1.49;77.20;100441.69;6139657;29;20480;-74
2021/11/27 10:02:57;;;;;;;1.97;1.70;;;;;;;1.47;77.57;100437.47;6140781;29;20193;-74
2021/11/27 10:06:02;;;;;;;1.80;1.80;;;;;;;1.50;77.29;100437.16;6143933;29;20467;-73
2021/11/27 10:09:10;;;;;;;1.80;1.80;;;;;;;1.71;76.51;100440.16;6145106;29;20192;-73
2021/11/27 10:12:15;;;;;;;1.90;1.90;;;;;;;1.67;76.54;100436.97;6145291;29;20273;-72
2021/11/27 10:15:19;;;;;;;1.73;1.73;;;;;;;1.63;76.77;100437.47;6145451;29;20198;-74
2021/11/27 10:18:27;;;;;;;1.70;1.60;;;;;;;1.79;76.38;100443.69;6145179;29;20264;-73
2021/11/27 10:21:32;;;;;;;2.43;1.80;;;;;;;1.83;76.29;100444.19;6145278;29;20284;-73
2021/11/27 10:24:38;;;;;;;2.07;1.83;;;;;;;1.87;76.36;100440.16;6144629;29;20261;-74
2021/11/27 10:27:42;;;;;;;1.80;1.80;;;;;;;1.85;75.66;100447.53;6145064;29;20193;-73
2021/11/27 10:30:52;;;;;;;1.93;1.93;;;;;;;1.87;75.69;100440.16;6145212;29;20192;-73
2021/11/27 10:34:00;;;;;;;2.53;2.00;;;;;;;1.96;75.43;100449.88;6145151;29;20219;-73
2021/11/27 10:37:24;;;;;;;2.00;1.97;;;;;;;1.85;76.06;100451.06;6144471;29;20193;-74
2021/11/27 10:40:31;;;;;;;1.57;1.57;;;;;;;1.85;75.72;100442.16;6144722;29;20188;-73
2021/11/27 10:43:35;;;;;;;2.87;1.70;;;;;;;1.93;75.87;100433.25;6144443;29;20192;-73
2021/11/27 10:47:11;;;;;;;2.50;1.70;;;;;;;1.89;76.29;100447.03;6144184;29;20226;-73
2021/11/27 10:50:21;;;;;;;1.73;1.63;;;;;;;2.06;75.66;100450.53;6144095;29;20205;-74
2021/11/27 10:53:27;;;;;;;1.87;1.80;;;;;;;2.07;76.12;100452.22;6144005;29;20212;-74
2021/11/27 10:56:46;;;;;;;2.03;1.93;;;;;;;2.14;75.92;100453.19;6143499;29;20315;-73
2021/11/27 10:59:50;;;;;;;2.27;1.90;;;;;;;2.10;75.90;100457.25;6143384;29;20264;-74
2021/11/27 11:02:55;;;;;;;1.70;1.70;;;;;;;2.22;75.54;100455.88;6144085;29;20255;-74
2021/11/27 11:06:01;;;;;;;2.50;2.20;;;;;;;2.15;75.59;100449.50;6143589;29;20423;-74
2021/11/27 11:09:06;;;;;;;2.07;1.97;;;;;;;2.27;75.40;100458.88;6144310;29;20191;-73
2021/11/27 11:12:12;;;;;;;1.90;1.80;;;;;;;2.17;75.35;100458.25;6143843;29;20194;-73
2021/11/27 11:15:20;;;;;;;2.90;2.10;;;;;;;2.28;75.67;100455.19;6142779;29;20217;-73
2021/11/27 11:18:26;;;;;;;3.87;2.10;;;;;;;2.27;75.95;100442.75;6143907;29;20188;-73
2021/11/27 11:21:30;;;;;;;1.60;1.60;;;;;;;2.27;75.44;100448.13;6143023;29;20389;-77
2021/11/27 11:24:35;;;;;;;1.70;1.70;;;;;;;2.32;75.30;100450.28;6142710;29;20197;-74
2021/11/27 11:27:41;;;;;;;1.70;1.70;;;;;;;2.41;74.76;100439.31;6144127;29;20193;-73
2021/11/27 11:30:47;;;;;;;1.93;1.83;;;;;;;2.47;74.83;100438.63;6143955;29;20188;-73
2021/11/27 11:33:56;;;;;;;2.80;1.50;;;;;;;2.74;73.16;100433.78;6142424;29;20379;-73
2021/11/27 11:37:04;;;;;;;1.40;1.40;;;;;;;2.75;72.57;100451.66;6143580;29;20195;-73
2021/11/27 11:40:11;;;;;;;1.70;1.70;;;;;;;2.78;71.60;100440.50;6142063;29;20496;-74
2021/11/27 11:43:19;;;;;;;1.20;1.20;;;;;;;2.91;71.33;100446.16;6143484;29;20196;-73
2021/11/27 11:46:24;;;;;;;1.17;1.17;;;;;;;2.89;70.71;100446.34;6142418;29;20191;-74
2021/11/27 11:49:29;;;;;;;1.10;1.10;;;;;;;2.93;70.64;100444.13;6141981;29;20416;-75
2021/11/27 11:52:42;;;;;;;1.10;1.10;;;;;;;2.93;69.97;100438.72;6141986;29;20469;-75
2021/11/27 11:55:56;;;;;;;4.10;1.20;;;;;;;3.01;69.10;100447.59;6142679;29;20222;-74
2021/11/27 11:59:21;;;;;;;1.10;1.10;;;;;;;2.90;69.33;100449.88;6142964;29;20222;-75
2021/11/27 12:02:28;;;;;;;1.30;1.30;;;;;;;2.94;68.28;100453.88;6142003;29;20220;-74
2021/11/27 12:05:34;;;;;;;1.13;1.13;;;;;;;2.85;68.88;100455.78;6141660;29;20250;-74
2021/11/27 12:09:03;;;;;;;1.50;1.43;;;;;;;2.88;68.52;100451.88;6142620;29;20190;-74
2021/11/27 12:12:22;;;;;;;1.40;1.40;;;;;;;3.00;68.65;100455.88;6142277;29;20221;-74
2021/11/27 12:15:30;;;;;;;1.13;1.10;;;;;;;2.76;68.71;100458.69;6142733;29;20222;-74
2021/11/27 12:18:35;;;;;;;1.63;1.53;;;;;;;2.88;68.99;100462.66;6142533;29;20197;-75
2021/11/27 12:21:41;;;;;;;1.10;1.10;;;;;;;2.92;68.41;100447.84;6141573;29;20467;-75
2021/11/27 12:25:04;;;;;;;1.73;1.63;;;;;;;3.07;67.68;100451.44;6142306;29;20192;-74
2021/11/27 12:28:14;;;;;;;1.07;1.07;;;;;;;3.00;67.35;100450.50;6141083;29;20552;-74
2021/11/27 12:31:22;;;;;;;1.30;1.20;;;;;;;2.93;68.35;100457.59;6141805;29;20211;-74
2021/11/27 12:34:42;;;;;;;1.50;0.93;;;;;;;2.93;66.76;100460.28;6142264;29;20212;-74
2021/11/27 12:37:47;;;;;;;1.20;1.20;;;;;;;3.02;67.52;100453.84;6142251;29;20284;-74
2021/11/27 12:40:51;;;;;;;1.37;1.37;;;;;;;3.05;67.34;100454.34;6141831;29;20191;-74
2021/11/27 12:44:13;;;;;;;2.63;1.30;;;;;;;3.15;67.46;100464.88;6140761;29;20543;-76
2021/11/27 12:47:49;;;;;;;1.30;1.30;;;;;;;3.07;67.51;100467.63;6140536;29;20380;-74
2021/11/27 12:51:19;;;;;;;1.17;1.17;;;;;;;3.07;66.99;100457.69;6069466;29;20233;-75
2021/11/27 12:54:26;;;;;;;1.67;1.30;;;;;;;2.96;68.23;100459.94;6140161;29;20225;-75
2021/11/27 12:57:39;;;;;;;1.37;1.20;;;;;;;2.95;66.67;100463.66;6140370;29;20196;-75
2021/11/27 13:00:43;;;;;;;1.00;1.00;;;;;;;2.86;67.20;100464.72;6140153;29;20213;-74
2021/11/27 13:03:52;;;;;;;4.90;1.40;;;;;;;2.81;67.43;100451.78;6140129;29;20414;-74
2021/11/27 13:06:57;;;;;;;1.30;1.30;;;;;;;2.86;67.00;100459.31;6140288;29;20608;-75
2021/11/27 13:10:03;;;;;;;1.30;1.27;;;;;;;2.90;67.82;100464.16;6141572;29;20194;-74
2021/11/27 13:13:12;;;;;;;1.13;1.13;;;;;;;2.89;66.70;100456.28;6141500;29;20199;-75
2021/11/27 13:16:24;;;;;;;2.23;1.53;;;;;;;2.90;66.76;100457.97;6139687;29;20214;-75
2021/11/27 13:19:31;;;;;;;1.43;1.33;;;;;;;2.85;66.46;100447.69;6140984;29;20189;-75
2021/11/27 13:22:36;;;;;;;1.10;1.10;;;;;;;2.76;66.88;100443.38;6141321;29;20237;-74
2021/11/27 13:25:41;;;;;;;5.90;1.40;;;;;;;2.91;65.98;100454.25;6141558;29;20276;-75
2021/11/27 13:28:49;;;;;;;1.30;1.30;;;;;;;2.91;65.96;100446.16;6140167;29;20193;-75
2021/11/27 13:31:53;;;;;;;1.20;1.20;;;;;;;2.66;66.16;100447.28;6140363;29;20237;-75
2021/11/27 13:34:59;;;;;;;1.17;1.17;;;;;;;2.59;66.43;100449.88;6140610;29;20282;-75
2021/11/27 13:38:03;;;;;;;1.23;1.23;;;;;;;2.68;66.06;100447.97;6141148;29;20208;-75
2021/11/27 13:41:16;;;;;;;1.30;1.30;;;;;;;2.67;66.26;100449.00;6144412;29;20262;-75
2021/11/27 13:44:34;;;;;;;3.10;1.20;;;;;;;2.77;66.08;100455.00;6145357;29;20231;-75
2021/11/27 13:47:39;;;;;;;1.13;1.13;;;;;;;2.71;66.30;100444.91;6145833;29;20189;-75
2021/11/27 13:50:46;;;;;;;1.30;1.30;;;;;;;2.77;67.10;100439.69;6144571;29;20188;-74
2021/11/27 13:53:52;;;;;;;1.30;1.30;;;;;;;2.92;66.38;100439.75;6145532;29;20188;-74
2021/11/27 13:56:57;;;;;;;1.73;1.73;;;;;;;2.83;67.34;100448.88;6145491;29;20217;-77
2021/11/27 14:00:12;;;;;;;1.30;1.30;;;;;;;2.85;66.62;100449.56;6143758;29;20479;-74
2021/11/27 14:03:21;;;;;;;1.00;1.00;;;;;;;2.66;65.73;100458.06;6144835;29;20228;-74
2021/11/27 14:06:27;;;;;;;1.03;1.03;;;;;;;2.66;65.48;100458.06;6144557;29;20279;-73
2021/11/27 14:09:53;;;;;;;1.10;1.10;;;;;;;2.64;65.19;100457.41;6145654;29;20220;-74
2021/11/27 14:13:02;;;;;;;2.57;1.30;;;;;;;2.57;65.45;100453.75;6145607;29;20220;-74
2021/11/27 14:16:19;;;;;;;1.37;1.20;;;;;;;2.45;66.32;100451.44;6144968;29;20225;-74
2021/11/27 14:19:26;;;;;;;2.47;1.10;;;;;;;2.47;65.88;100454.78;6144554;29;20196;-74
2021/11/27 14:22:31;;;;;;;1.20;1.20;;;;;;;2.56;66.10;100457.44;6145029;29;20219;-74
2021/11/27 14:25:38;;;;;;;1.03;1.03;;;;;;;2.66;65.87;100453.53;6145117;29;20208;-74
2021/11/27 14:28:45;;;;;;;1.10;1.10;;;;;;;2.51;65.67;100456.13;6144469;29;20192;-74
2021/11/27 14:31:49;;;;;;;1.77;1.30;;;;;;;2.66;64.20;100453.53;6145189;29;20191;-74
2021/11/27 14:34:53;;;;;;;1.10;1.10;;;;;;;2.51;66.32;100460.66;6143683;29;20191;-74
2021/11/27 14:37:59;;;;;;;1.90;1.10;;;;;;;2.51;66.83;100461.50;6143816;29;20325;-73
2021/11/27 14:41:08;;;;;;;0.90;0.90;;;;;;;2.56;67.25;100468.22;6144577;29;20190;-73
2021/11/27 14:44:25;;;;;;;8.43;1.20;;;;;;;2.46;66.02;100469.28;6144185;29;20268;-73